Time;durP1;ratioP1;P1;durP2;ratioP2;P2;SDS_P1;SDS_P2;PMS_P1;PMS_P2;Temp;Humidity;BMP_temperature;BMP_pressure;BME280_temperature;BME280_humidity;BME280_pressure;Samples;Min_cycle;Max_cycle;Signal;HPM_P1;HPM_P2
2023/08/25 00:00:29;;;;;;;6.27;4.03;;;;;24.50;99872.00;;;;2112246;28;20203;-70
2023/08/25 00:01:30;;;;;;;6.53;5.17;;;;;24.50;99868.00;;;;2112141;28;20210;-70
2023/08/25 00:02:30;;;;;;;5.90;4.70;;;;;24.50;99874.00;;;;2109574;28;20577;-70
2023/08/25 00:03:31;;;;;;;5.33;4.83;;;;;24.50;99867.00;;;;2102615;28;20203;-70
2023/08/25 00:04:31;;;;;;;4.63;4.23;;;;;24.50;99876.00;;;;2112139;28;20217;-71
2023/08/25 00:05:37;;;;;;;5.97;4.77;;;;;24.50;99876.00;;;;2111289;28;20230;-70
2023/08/25 00:06:38;;;;;;;5.97;4.78;;;;;24.50;99868.00;;;;2111955;28;20199;-70
2023/08/25 00:07:38;;;;;;;5.73;4.13;;;;;24.50;99858.00;;;;2109865;28;20663;-70
2023/08/25 00:08:38;;;;;;;5.60;4.20;;;;;24.50;99869.00;;;;2102166;28;20680;-70
2023/08/25 00:09:39;;;;;;;5.27;4.33;;;;;24.50;99860.00;;;;2112191;28;20623;-70
2023/08/25 00:10:39;;;;;;;3.80;3.40;;;;;24.50;99871.00;;;;2112776;28;20230;-70
2023/08/25 00:11:39;;;;;;;5.20;3.97;;;;;24.50;99856.00;;;;2112005;28;20555;-70
2023/08/25 00:12:40;;;;;;;6.43;3.47;;;;;24.50;99852.00;;;;2111779;28;20600;-70
2023/08/25 00:13:41;;;;;;;4.90;4.10;;;;;24.50;99852.00;;;;2101498;28;20231;-70
2023/08/25 00:14:41;;;;;;;6.15;4.55;;;;;24.50;99852.00;;;;2109682;28;20211;-70
2023/08/25 00:15:42;;;;;;;4.53;3.97;;;;;24.50;99854.00;;;;2102187;28;20207;-70
2023/08/25 00:16:42;;;;;;;5.50;4.47;;;;;24.50;99846.00;;;;2105904;28;20208;-70
2023/08/25 00:17:42;;;;;;;7.20;3.80;;;;;24.50;99848.00;;;;2103198;28;20724;-70
2023/08/25 00:18:43;;;;;;;9.97;4.47;;;;;24.50;99846.00;;;;2093314;28;20863;-70
2023/08/25 00:19:43;;;;;;;4.60;3.90;;;;;24.50;99858.00;;;;2104114;28;21304;-70
2023/08/25 00:20:43;;;;;;;6.67;3.90;;;;;24.50;99846.00;;;;2106924;28;20799;-70
2023/08/25 00:21:45;;;;;;;4.37;3.60;;;;;24.50;99842.00;;;;2105621;28;20230;-70
2023/08/25 00:22:45;;;;;;;5.65;4.20;;;;;24.50;99846.00;;;;2107046;28;20218;-70
2023/08/25 00:23:46;;;;;;;7.30;4.10;;;;;24.50;99844.00;;;;2094889;28;20283;-70
2023/08/25 00:24:46;;;;;;;6.13;3.50;;;;;24.50;99846.00;;;;2103998;28;20458;-70
2023/08/25 00:25:47;;;;;;;4.70;3.93;;;;;24.50;99846.00;;;;2110889;28;20230;-70
2023/08/25 00:26:47;;;;;;;7.20;4.50;;;;;24.50;99836.00;;;;2103510;28;20211;-70
2023/08/25 00:27:48;;;;;;;6.13;3.63;;;;;24.50;99836.00;;;;2103015;28;20851;-70
2023/08/25 00:28:48;;;;;;;4.60;3.50;;;;;24.50;99840.00;;;;2102254;28;20713;-71
2023/08/25 00:29:49;;;;;;;4.83;4.10;;;;;24.40;99811.00;;;;2112485;28;20211;-71
2023/08/25 00:30:49;;;;;;;6.47;4.10;;;;;24.50;99830.00;;;;2112278;28;20762;-71
2023/08/25 00:31:49;;;;;;;4.83;3.90;;;;;24.50;99831.00;;;;2111347;28;20303;-70
2023/08/25 00:32:50;;;;;;;5.30;3.70;;;;;24.50;99825.00;;;;2109589;28;20217;-70
2023/08/25 00:33:50;;;;;;;4.90;3.70;;;;;24.50;99824.00;;;;2101816;28;20226;-70
2023/08/25 00:34:50;;;;;;;4.80;3.80;;;;;24.50;99823.00;;;;2111608;28;20254;-70
2023/08/25 00:35:51;;;;;;;5.17;3.63;;;;;24.50;99810.00;;;;2109354;28;20260;-70
2023/08/25 00:36:51;;;;;;;3.53;2.93;;;;;24.50;99819.00;;;;2111064;28;20206;-70
2023/08/25 00:37:51;;;;;;;3.33;3.00;;;;;24.50;99821.00;;;;2111017;28;20214;-70
2023/08/25 00:38:52;;;;;;;4.33;3.80;;;;;24.50;99826.00;;;;2101949;28;20233;-70
2023/08/25 00:39:52;;;;;;;3.23;2.93;;;;;24.50;99819.00;;;;2110287;28;20212;-70
2023/08/25 00:40:52;;;;;;;5.33;3.37;;;;;24.50;99823.00;;;;2112364;28;20211;-70
2023/08/25 00:41:56;;;;;;;4.70;3.20;;;;;24.50;99825.00;;;;2112106;28;20210;-70
2023/08/25 00:42:56;;;;;;;4.13;3.35;;;;;24.50;99830.00;;;;2108235;28;20681;-70
2023/08/25 00:43:57;;;;;;;6.00;3.07;;;;;24.50;99825.00;;;;2094160;28;20223;-70
2023/08/25 00:44:57;;;;;;;6.00;4.00;;;;;24.50;99823.00;;;;2112126;28;20268;-70
2023/08/25 00:45:58;;;;;;;3.67;3.03;;;;;24.50;99804.00;;;;2108168;28;21009;-70
2023/08/25 00:46:58;;;;;;;4.10;3.43;;;;;24.50;99823.00;;;;2094649;28;20752;-70
2023/08/25 00:47:58;;;;;;;4.60;3.60;;;;;24.50;99813.00;;;;2085196;28;20229;-70
2023/08/25 00:48:59;;;;;;;3.80;3.33;;;;;24.50;99826.00;;;;2085232;28;20212;-70
2023/08/25 00:49:59;;;;;;;4.07;3.63;;;;;24.50;99826.00;;;;2096825;28;20224;-70
2023/08/25 00:50:59;;;;;;;3.90;3.23;;;;;24.50;99827.00;;;;2091732;28;20251;-70
2023/08/25 00:52:00;;;;;;;3.77;3.30;;;;;24.50;99824.00;;;;2098015;28;20652;-70
2023/08/25 00:53:01;;;;;;;4.90;3.93;;;;;24.50;99828.00;;;;2104003;28;20230;-70
2023/08/25 00:54:02;;;;;;;4.78;3.45;;;;;24.50;99821.00;;;;2082321;28;20225;-70
2023/08/25 00:55:03;;;;;;;3.65;3.20;;;;;24.50;99827.00;;;;2096650;28;20224;-70
2023/08/25 00:56:04;;;;;;;5.23;3.33;;;;;24.50;99827.00;;;;2093092;28;20228;-70
2023/08/25 00:57:04;;;;;;;6.33;3.20;;;;;24.50;99820.00;;;;2093864;28;20212;-70
2023/08/25 00:58:06;;;;;;;4.97;3.20;;;;;24.50;99825.00;;;;2091300;28;20276;-70
2023/08/25 00:59:06;;;;;;;5.93;3.53;;;;;24.50;99824.00;;;;2081731;28;20244;-70
2023/08/25 01:00:09;;;;;;;3.20;2.90;;;;;24.50;99820.00;;;;2094251;28;20763;-70
2023/08/25 01:01:09;;;;;;;4.07;3.35;;;;;24.50;99821.00;;;;2098184;28;20220;-70
2023/08/25 01:02:10;;;;;;;5.10;3.67;;;;;24.50;99806.00;;;;2096811;28;20221;-70
2023/08/25 01:03:10;;;;;;;4.27;3.03;;;;;24.50;99819.00;;;;2088458;28;20677;-70
2023/08/25 01:04:11;;;;;;;4.40;3.60;;;;;24.50;99819.00;;;;2085814;28;20716;-70
2023/08/25 01:05:12;;;;;;;3.70;2.70;;;;;24.50;99823.00;;;;2101296;28;20223;-70
2023/08/25 01:06:12;;;;;;;5.23;3.10;;;;;24.50;99820.00;;;;2104233;28;20453;-70
2023/08/25 01:07:12;;;;;;;4.33;3.00;;;;;24.50;99826.00;;;;2104280;28;20214;-70
2023/08/25 01:08:13;;;;;;;3.60;2.70;;;;;24.50;99829.00;;;;2110457;28;20215;-70
2023/08/25 01:09:13;;;;;;;4.90;3.27;;;;;24.50;99825.00;;;;2096136;28;20264;-70
2023/08/25 01:10:15;;;;;;;3.40;3.00;;;;;24.50;99826.00;;;;2088361;28;20225;-70
2023/08/25 01:11:46;;;;;;;3.33;2.63;;;;;24.50;99840.00;;;;2092723;28;20220;-70
2023/08/25 01:12:54;;;;;;;4.65;2.90;;;;;24.50;99826.00;;;;2085829;28;20281;-70
2023/08/25 01:14:16;;;;;;;4.40;2.83;;;;;24.50;99832.00;;;;2087216;28;20224;-70
2023/08/25 01:15:22;;;;;;;4.45;3.00;;;;;24.50;99832.00;;;;2096073;28;20224;-70
2023/08/25 01:16:26;;;;;;;3.35;2.53;;;;;24.50;99834.00;;;;2086642;28;20355;-70
2023/08/25 01:17:30;;;;;;;3.22;2.90;;;;;24.50;99834.00;;;;2094241;28;20330;-70
2023/08/25 01:18:32;;;;;;;3.08;2.55;;;;;24.50;99774.00;;;;2085573;28;20893;-70
2023/08/25 01:19:40;;;;;;;3.28;2.58;;;;;24.50;99828.00;;;;2091029;28;20208;-71
2023/08/25 01:20:41;;;;;;;3.25;2.80;;;;;24.50;99835.00;;;;2079199;28;20686;-71
2023/08/25 01:21:41;;;;;;;6.37;3.10;;;;;24.50;99828.00;;;;2079862;28;20209;-71
2023/08/25 01:23:03;;;;;;;2.83;2.53;;;;;24.50;99833.00;;;;2084238;28;20721;-71
2023/08/25 01:24:13;;;;;;;2.90;2.65;;;;;24.50;99825.00;;;;2076781;28;20270;-71
2023/08/25 01:25:29;;;;;;;3.85;2.80;;;;;24.50;99823.00;;;;2087044;28;20400;-71
2023/08/25 01:26:29;;;;;;;3.50;2.90;;;;;24.40;99830.00;;;;2100620;28;20215;-71
2023/08/25 01:27:30;;;;;;;3.03;2.60;;;;;24.50;99824.00;;;;2104210;28;20314;-71
2023/08/25 01:28:30;;;;;;;2.87;2.50;;;;;24.50;99822.00;;;;2091781;28;20219;-71
2023/08/25 01:29:30;;;;;;;2.97;2.67;;;;;24.50;99828.00;;;;2102180;28;20207;-71
2023/08/25 01:30:35;;;;;;;4.17;2.70;;;;;24.50;99825.00;;;;2092937;28;20216;-71
2023/08/25 01:31:35;;;;;;;3.38;2.40;;;;;24.50;99825.00;;;;2105193;28;20318;-70
2023/08/25 01:32:37;;;;;;;3.30;3.00;;;;;24.50;99825.00;;;;2109016;28;20210;-71
2023/08/25 01:33:39;;;;;;;5.05;2.40;;;;;24.50;99826.00;;;;2094405;28;20684;-71
2023/08/25 01:34:39;;;;;;;4.90;2.70;;;;;24.50;99824.00;;;;2094915;28;20239;-71
2023/08/25 01:36:07;;;;;;;3.20;2.43;;;;;24.50;99820.00;;;;2092110;28;20216;-71
2023/08/25 01:37:23;;;;;;;3.80;2.78;;;;;24.50;99820.00;;;;2099537;28;20243;-71
2023/08/25 01:38:31;;;;;;;2.70;2.20;;;;;24.50;99821.00;;;;2104588;28;20302;-71
2023/08/25 01:39:31;;;;;;;3.45;2.90;;;;;24.50;99788.00;;;;2104264;28;20223;-71
2023/08/25 01:40:40;;;;;;;4.00;2.50;;;;;24.50;99831.00;;;;2096533;28;20215;-71
2023/08/25 01:41:49;;;;;;;2.75;2.55;;;;;24.50;99825.00;;;;2089304;28;20702;-71
2023/08/25 01:42:49;;;;;;;4.20;2.90;;;;;24.50;99826.00;;;;2098052;28;20216;-71
2023/08/25 01:43:51;;;;;;;3.30;3.00;;;;;24.50;99826.00;;;;2078524;28;20294;-71
2023/08/25 01:44:51;;;;;;;3.40;2.60;;;;;24.50;99796.00;;;;2088872;28;20213;-71
2023/08/25 01:45:52;;;;;;;3.63;2.67;;;;;24.50;99835.00;;;;2083779;28;20301;-71
2023/08/25 01:46:54;;;;;;;2.90;2.40;;;;;24.50;99836.00;;;;2080115;28;20712;-71
2023/08/25 01:47:55;;;;;;;3.50;3.03;;;;;24.50;99831.00;;;;2078453;28;20251;-71
2023/08/25 01:48:56;;;;;;;3.47;2.87;;;;;24.50;99808.00;;;;2073635;28;20302;-71
2023/08/25 01:49:57;;;;;;;3.42;2.35;;;;;24.50;99791.00;;;;2095928;28;20224;-70
2023/08/25 01:50:57;;;;;;;2.90;2.37;;;;;24.50;99828.00;;;;2096469;28;20228;-70
2023/08/25 01:52:01;;;;;;;2.63;2.30;;;;;24.50;99832.00;;;;2094216;28;20220;-70
2023/08/25 01:53:02;;;;;;;6.32;2.70;;;;;24.50;99836.00;;;;2092515;28;20848;-70
2023/08/25 01:54:03;;;;;;;4.20;2.65;;;;;24.40;99829.00;;;;2073009;28;20229;-70
2023/08/25 01:55:03;;;;;;;4.13;2.70;;;;;24.50;99832.00;;;;2096278;28;20248;-70
2023/08/25 01:56:04;;;;;;;4.40;2.20;;;;;24.50;99825.00;;;;2102507;28;20227;-70
2023/08/25 01:57:04;;;;;;;3.00;2.50;;;;;24.30;99826.00;;;;2088790;28;20267;-70
2023/08/25 01:58:04;;;;;;;3.17;2.50;;;;;24.50;99829.00;;;;2090310;28;20228;-70
2023/08/25 01:59:05;;;;;;;2.47;2.20;;;;;24.40;99831.00;;;;2097725;28;20222;-70
2023/08/25 02:00:06;;;;;;;2.80;2.50;;;;;24.50;99817.00;;;;2094863;28;20246;-70
2023/08/25 02:01:06;;;;;;;3.30;1.90;;;;;24.50;99807.00;;;;2095178;28;20224;-70
2023/08/25 02:02:06;;;;;;;3.13;2.30;;;;;24.50;99830.00;;;;2103530;28;20470;-70
2023/08/25 02:03:07;;;;;;;2.40;2.10;;;;;24.50;99842.00;;;;2103107;28;20269;-70
2023/08/25 02:04:07;;;;;;;3.83;2.60;;;;;24.50;99830.00;;;;2093758;28;20211;-70
2023/08/25 02:05:08;;;;;;;3.00;2.13;;;;;24.50;99827.00;;;;2112326;28;20226;-70
2023/08/25 02:06:09;;;;;;;4.17;2.50;;;;;24.50;99828.00;;;;2111960;28;20464;-70
2023/08/25 02:07:09;;;;;;;3.17;2.13;;;;;24.50;99830.00;;;;2112078;28;20265;-70
2023/08/25 02:08:10;;;;;;;3.80;2.63;;;;;24.50;99828.00;;;;2113708;28;20211;-70
2023/08/25 02:09:10;;;;;;;2.77;2.30;;;;;24.50;99827.00;;;;2103224;28;20211;-70
2023/08/25 02:10:11;;;;;;;2.97;2.67;;;;;24.50;99822.00;;;;2112720;28;20221;-70
2023/08/25 02:11:11;;;;;;;3.60;2.80;;;;;24.40;99819.00;;;;2111297;28;20226;-70
2023/08/25 02:12:11;;;;;;;3.60;2.00;;;;;24.50;99823.00;;;;2111077;28;20254;-70
2023/08/25 02:13:13;;;;;;;3.30;2.57;;;;;24.50;99824.00;;;;2113609;28;20207;-70
2023/08/25 02:14:13;;;;;;;3.30;2.30;;;;;24.50;99821.00;;;;2102012;28;20320;-70
2023/08/25 02:15:13;;;;;;;2.67;2.40;;;;;24.50;99820.00;;;;2113474;28;20712;-70
2023/08/25 02:16:14;;;;;;;2.50;1.97;;;;;24.40;99813.00;;;;2113011;28;20218;-70
2023/08/25 02:17:14;;;;;;;3.07;2.47;;;;;24.40;99807.00;;;;2113006;28;20217;-70
2023/08/25 02:18:14;;;;;;;3.30;2.13;;;;;24.40;99823.00;;;;2111748;28;20219;-70
2023/08/25 02:19:14;;;;;;;2.97;2.53;;;;;24.40;99825.00;;;;2093209;28;20247;-70
2023/08/25 02:20:15;;;;;;;3.40;2.40;;;;;24.40;99817.00;;;;2104403;28;20626;-70
2023/08/25 02:21:15;;;;;;;2.27;2.00;;;;;24.50;99809.00;;;;2112904;28;20558;-70
2023/08/25 02:22:15;;;;;;;5.77;2.67;;;;;24.50;99809.00;;;;2113645;28;20215;-71
2023/08/25 02:23:16;;;;;;;2.40;2.10;;;;;24.40;99805.00;;;;2111752;28;20249;-71
2023/08/25 02:24:16;;;;;;;3.33;2.20;;;;;24.50;99804.00;;;;2102132;28;20211;-71
2023/08/25 02:25:16;;;;;;;3.03;2.37;;;;;24.50;99806.00;;;;2113113;28;20263;-71
2023/08/25 02:26:17;;;;;;;2.20;2.00;;;;;24.40;99803.00;;;;2106861;28;20242;-71
2023/08/25 02:27:17;;;;;;;2.60;2.20;;;;;24.50;99804.00;;;;2113313;28;20203;-71
2023/08/25 02:28:17;;;;;;;3.60;2.40;;;;;24.40;99801.00;;;;2111070;28;20211;-71
2023/08/25 02:29:18;;;;;;;2.17;1.97;;;;;24.50;99802.00;;;;2091220;28;20211;-71
2023/08/25 02:30:18;;;;;;;3.23;2.43;;;;;24.50;99797.00;;;;2110452;28;20226;-71
2023/08/25 02:31:18;;;;;;;2.40;2.00;;;;;24.40;99794.00;;;;2109601;28;20588;-70
2023/08/25 02:32:19;;;;;;;3.33;2.20;;;;;24.50;99804.00;;;;2108824;28;20211;-70
2023/08/25 02:33:19;;;;;;;2.60;2.10;;;;;24.50;99790.00;;;;2111123;28;20288;-70
2023/08/25 02:34:19;;;;;;;2.50;2.20;;;;;24.40;99793.00;;;;2094004;28;20239;-70
2023/08/25 02:35:20;;;;;;;2.97;2.30;;;;;24.50;99790.00;;;;2108516;27;20252;-70
2023/08/25 02:36:20;;;;;;;3.20;2.20;;;;;24.40;99789.00;;;;2095816;28;20270;-70
2023/08/25 02:37:20;;;;;;;2.73;2.13;;;;;24.50;99788.00;;;;2104432;28;20207;-70
2023/08/25 02:38:21;;;;;;;3.20;2.13;;;;;24.40;99788.00;;;;2109229;28;20214;-70
2023/08/25 02:39:21;;;;;;;2.80;2.20;;;;;24.40;99788.00;;;;2094266;28;20261;-70
2023/08/25 02:40:22;;;;;;;3.20;2.10;;;;;24.40;99779.00;;;;2101923;28;20215;-70
2023/08/25 02:41:22;;;;;;;3.50;2.00;;;;;24.40;99788.00;;;;2113147;27;20237;-70
2023/08/25 02:42:22;;;;;;;2.10;1.90;;;;;24.40;99779.00;;;;2112930;28;20217;-70
2023/08/25 02:43:23;;;;;;;3.27;2.17;;;;;24.40;99783.00;;;;2102481;28;20212;-70
2023/08/25 02:44:23;;;;;;;3.20;2.27;;;;;24.40;99787.00;;;;2085920;28;20701;-70
2023/08/25 02:45:24;;;;;;;2.20;2.00;;;;;24.40;99784.00;;;;2103449;28;20823;-70
2023/08/25 02:46:24;;;;;;;3.37;2.10;;;;;24.50;99789.00;;;;2104110;28;20948;-70
2023/08/25 02:47:24;;;;;;;2.60;2.00;;;;;24.40;99783.00;;;;2103625;28;20227;-70
2023/08/25 02:48:24;;;;;;;3.33;2.00;;;;;24.50;99788.00;;;;2113268;28;20214;-70
2023/08/25 02:49:25;;;;;;;2.90;2.47;;;;;24.50;99786.00;;;;2102834;28;20215;-70
2023/08/25 02:50:25;;;;;;;2.53;2.30;;;;;24.50;99788.00;;;;2112510;28;20217;-70
2023/08/25 02:51:25;;;;;;;2.37;2.10;;;;;24.50;99785.00;;;;2112673;28;20207;-70
2023/08/25 02:52:26;;;;;;;2.70;2.20;;;;;24.50;99788.00;;;;2112148;28;20744;-70
2023/08/25 02:53:26;;;;;;;2.60;2.30;;;;;24.50;99781.00;;;;2118816;27;20237;-70
2023/08/25 02:54:26;;;;;;;2.67;2.20;;;;;24.40;99785.00;;;;2094277;28;20716;-70
2023/08/25 02:55:27;;;;;;;2.23;2.03;;;;;24.40;99784.00;;;;2110944;28;20211;-70
2023/08/25 02:56:27;;;;;;;2.70;2.30;;;;;24.50;99783.00;;;;2112034;28;20215;-70
2023/08/25 02:57:27;;;;;;;3.60;1.90;;;;;24.40;99781.00;;;;2112714;28;20913;-71
2023/08/25 02:58:28;;;;;;;4.40;2.33;;;;;24.40;99784.00;;;;2099977;28;20534;-71
2023/08/25 02:59:28;;;;;;;3.33;1.90;;;;;24.40;99788.00;;;;2103547;28;20679;-71
2023/08/25 03:00:28;;;;;;;2.27;2.07;;;;;24.40;99792.00;;;;2112718;28;20247;-71
2023/08/25 03:01:29;;;;;;;2.07;1.70;;;;;24.40;99787.00;;;;2113091;28;20442;-71
2023/08/25 03:02:29;;;;;;;3.60;2.03;;;;;24.40;99786.00;;;;2112586;28;20563;-71
2023/08/25 03:03:30;;;;;;;2.40;2.20;;;;;24.40;99783.00;;;;2102964;28;20592;-71
2023/08/25 03:04:30;;;;;;;2.93;2.03;;;;;24.40;99779.00;;;;2113138;28;20203;-71
2023/08/25 03:05:30;;;;;;;2.20;1.90;;;;;24.40;99779.00;;;;2111990;28;20233;-71
2023/08/25 03:06:31;;;;;;;2.33;1.63;;;;;24.40;99773.00;;;;2113038;28;20242;-71
2023/08/25 03:07:33;;;;;;;4.47;2.27;;;;;24.40;99782.00;;;;2112581;28;20314;-71
2023/08/25 03:08:33;;;;;;;2.50;1.95;;;;;24.40;99770.00;;;;2102737;28;20554;-71
2023/08/25 03:09:33;;;;;;;2.20;2.00;;;;;24.40;99775.00;;;;2111798;28;20221;-70
2023/08/25 03:10:33;;;;;;;2.80;2.30;;;;;24.50;99774.00;;;;2109832;28;20226;-70
2023/08/25 03:11:34;;;;;;;4.10;2.73;;;;;24.40;99767.00;;;;2112648;28;20275;-70
2023/08/25 03:12:34;;;;;;;4.30;2.30;;;;;24.40;99768.00;;;;2112157;28;20218;-70
2023/08/25 03:13:34;;;;;;;3.00;2.00;;;;;24.40;99765.00;;;;2102837;28;20218;-70
2023/08/25 03:14:35;;;;;;;1.87;1.67;;;;;24.40;99764.00;;;;2112045;28;20223;-70
2023/08/25 03:15:35;;;;;;;3.23;2.30;;;;;24.40;99766.00;;;;2108530;28;20223;-70
2023/08/25 03:16:36;;;;;;;2.50;2.00;;;;;24.40;99768.00;;;;2110582;28;20223;-70
2023/08/25 03:17:37;;;;;;;2.53;1.80;;;;;24.40;99769.00;;;;2110977;28;20223;-71
2023/08/25 03:18:37;;;;;;;3.10;2.03;;;;;24.40;99775.00;;;;2102567;28;20355;-71
2023/08/25 03:19:37;;;;;;;1.70;1.60;;;;;24.40;99762.00;;;;2112044;28;20464;-71
2023/08/25 03:20:38;;;;;;;3.90;2.30;;;;;24.40;99773.00;;;;2112775;28;20226;-71
2023/08/25 03:21:38;;;;;;;3.33;2.10;;;;;24.40;99763.00;;;;2109885;28;20233;-71
2023/08/25 03:22:38;;;;;;;1.93;1.60;;;;;24.40;99762.00;;;;2112393;28;20218;-71
2023/08/25 03:23:39;;;;;;;2.23;2.03;;;;;24.40;99759.00;;;;2102425;28;20237;-71
2023/08/25 03:24:39;;;;;;;3.00;1.93;;;;;24.40;99762.00;;;;2111647;28;20267;-71
2023/08/25 03:25:39;;;;;;;3.17;1.90;;;;;24.40;99762.00;;;;2112295;28;20318;-71
2023/08/25 03:26:40;;;;;;;4.87;1.90;;;;;24.40;99766.00;;;;2110032;28;20214;-70
2023/08/25 03:27:40;;;;;;;2.07;1.87;;;;;24.40;99762.00;;;;2112941;28;20253;-70
2023/08/25 03:28:40;;;;;;;4.93;2.53;;;;;24.40;99751.00;;;;2102480;27;20983;-70
2023/08/25 03:29:43;;;;;;;3.43;1.80;;;;;24.40;99750.00;;;;2104116;28;20692;-70
2023/08/25 03:30:44;;;;;;;2.05;1.85;;;;;24.40;99752.00;;;;2100586;28;20625;-70
2023/08/25 03:31:44;;;;;;;3.67;2.10;;;;;24.40;99751.00;;;;2112447;28;20207;-70
2023/08/25 03:32:44;;;;;;;2.13;1.70;;;;;24.40;99745.00;;;;2112920;28;20249;-70
2023/08/25 03:33:45;;;;;;;3.00;2.10;;;;;24.40;99751.00;;;;2097204;28;20200;-70
2023/08/25 03:34:45;;;;;;;3.40;2.10;;;;;24.40;99748.00;;;;2112854;28;20546;-70
2023/08/25 03:35:45;;;;;;;2.20;2.00;;;;;24.40;99760.00;;;;2112686;27;20215;-70
2023/08/25 03:36:46;;;;;;;1.87;1.60;;;;;24.50;99750.00;;;;2112732;28;20206;-70
2023/08/25 03:37:46;;;;;;;2.97;1.90;;;;;24.40;99757.00;;;;2113467;27;20202;-70
2023/08/25 03:38:47;;;;;;;2.60;2.10;;;;;24.40;99755.00;;;;2102479;28;20575;-70
2023/08/25 03:39:47;;;;;;;4.53;2.63;;;;;24.40;99758.00;;;;2112724;28;20764;-70
2023/08/25 03:40:47;;;;;;;2.13;1.93;;;;;24.40;99753.00;;;;2111590;28;20663;-70
2023/08/25 03:41:47;;;;;;;4.20;1.83;;;;;24.40;99752.00;;;;2115820;27;20294;-70
2023/08/25 03:42:48;;;;;;;2.37;1.97;;;;;24.40;99763.00;;;;2110403;28;20202;-70
2023/08/25 03:43:48;;;;;;;3.30;2.20;;;;;24.40;99754.00;;;;2101993;28;20226;-70
2023/08/25 03:44:48;;;;;;;2.23;1.80;;;;;24.40;99750.00;;;;2112957;28;20199;-70
2023/08/25 03:45:49;;;;;;;1.83;1.73;;;;;24.40;99751.00;;;;2111169;28;20215;-70
2023/08/25 03:46:49;;;;;;;2.40;1.93;;;;;24.40;99747.00;;;;2120233;27;20202;-70
2023/08/25 03:47:49;;;;;;;3.13;1.93;;;;;24.40;99742.00;;;;2112161;28;20207;-70
2023/08/25 03:48:50;;;;;;;1.93;1.73;;;;;24.40;99751.00;;;;2102362;28;20241;-70
2023/08/25 03:49:51;;;;;;;3.97;2.23;;;;;24.40;99739.00;;;;2112360;28;20559;-70
2023/08/25 03:50:51;;;;;;;2.07;1.87;;;;;24.40;99746.00;;;;2108981;28;20445;-70
2023/08/25 03:51:51;;;;;;;2.83;1.77;;;;;24.40;99746.00;;;;2112694;28;20207;-70
2023/08/25 03:52:53;;;;;;;3.17;2.00;;;;;24.40;99747.00;;;;2109282;28;20220;-70
2023/08/25 03:53:53;;;;;;;2.20;1.80;;;;;24.40;99746.00;;;;2100553;28;20219;-70
2023/08/25 03:54:53;;;;;;;3.70;1.90;;;;;24.40;99747.00;;;;2096848;28;20286;-70
2023/08/25 03:55:54;;;;;;;3.00;2.10;;;;;24.40;99741.00;;;;2100994;28;20219;-70
2023/08/25 03:56:55;;;;;;;1.95;1.75;;;;;24.40;99745.00;;;;2103190;28;20215;-71
2023/08/25 03:57:55;;;;;;;2.90;2.23;;;;;24.40;99740.00;;;;2094078;28;20212;-71
2023/08/25 03:58:55;;;;;;;2.00;1.70;;;;;24.40;99736.00;;;;2092200;28;20288;-71
2023/08/25 03:59:56;;;;;;;2.87;2.13;;;;;24.40;99742.00;;;;2112940;28;20249;-71
2023/08/25 04:00:56;;;;;;;2.90;1.90;;;;;24.40;99746.00;;;;2105507;28;20618;-71
2023/08/25 04:01:57;;;;;;;5.73;2.03;;;;;24.40;99729.00;;;;2105153;28;20565;-71
2023/08/25 04:02:57;;;;;;;2.10;1.90;;;;;24.40;99729.00;;;;2112758;28;20226;-71
2023/08/25 04:03:57;;;;;;;4.80;2.00;;;;;24.40;99738.00;;;;2105653;28;20214;-71
2023/08/25 04:04:57;;;;;;;2.43;1.73;;;;;24.40;99735.00;;;;2112629;28;20211;-71
2023/08/25 04:05:58;;;;;;;2.37;1.63;;;;;24.40;99739.00;;;;2110856;28;20207;-71
2023/08/25 04:06:58;;;;;;;2.43;2.13;;;;;24.40;99739.00;;;;2111939;28;20207;-71
2023/08/25 04:07:59;;;;;;;2.60;1.83;;;;;24.40;99746.00;;;;2111262;28;20206;-71
2023/08/25 04:08:59;;;;;;;4.43;2.10;;;;;24.40;99728.00;;;;2101301;28;20215;-71
2023/08/25 04:10:00;;;;;;;2.37;1.57;;;;;24.40;99738.00;;;;2112707;28;20792;-71
2023/08/25 04:11:00;;;;;;;2.67;2.13;;;;;24.40;99735.00;;;;2112626;28;20215;-71
2023/08/25 04:12:01;;;;;;;2.97;1.57;;;;;24.40;99731.00;;;;2112784;28;20206;-71
2023/08/25 04:13:01;;;;;;;2.43;1.73;;;;;24.40;99743.00;;;;2112745;28;20210;-71
2023/08/25 04:14:01;;;;;;;2.10;1.73;;;;;24.40;99738.00;;;;2101611;28;20226;-71
2023/08/25 04:15:02;;;;;;;4.37;2.00;;;;;24.40;99740.00;;;;2112797;28;20237;-71
2023/08/25 04:16:02;;;;;;;1.80;1.50;;;;;24.40;99734.00;;;;2111947;28;20221;-71
2023/08/25 04:17:03;;;;;;;2.93;1.90;;;;;24.40;99740.00;;;;2112778;28;20237;-71
2023/08/25 04:18:04;;;;;;;3.53;2.10;;;;;24.40;99732.00;;;;2112371;28;20213;-71
2023/08/25 04:19:05;;;;;;;5.10;2.25;;;;;24.40;99741.00;;;;2102446;28;20724;-71
2023/08/25 04:20:06;;;;;;;2.37;1.73;;;;;24.40;99741.00;;;;2112822;28;20218;-71
2023/08/25 04:21:06;;;;;;;4.28;1.90;;;;;24.40;99716.00;;;;2112122;28;20215;-71
2023/08/25 04:22:06;;;;;;;2.37;2.10;;;;;24.40;99741.00;;;;2092716;28;20215;-71
2023/08/25 04:23:08;;;;;;;3.00;2.17;;;;;24.40;99744.00;;;;2079878;28;20205;-71
2023/08/25 04:24:09;;;;;;;2.75;1.90;;;;;24.40;99741.00;;;;2094044;28;20298;-71
2023/08/25 04:25:09;;;;;;;1.90;1.67;;;;;24.40;99738.00;;;;2113981;28;20579;-70
2023/08/25 04:26:10;;;;;;;2.10;1.87;;;;;24.30;99742.00;;;;2112191;28;20632;-70
2023/08/25 04:27:10;;;;;;;2.77;1.80;;;;;24.40;99737.00;;;;2112790;28;20210;-70
2023/08/25 04:28:10;;;;;;;2.33;1.80;;;;;24.40;99743.00;;;;2113362;28;20266;-70
2023/08/25 04:29:11;;;;;;;3.20;1.87;;;;;24.40;99743.00;;;;2100710;28;20215;-70
2023/08/25 04:30:11;;;;;;;2.30;2.10;;;;;24.40;99735.00;;;;2112976;28;20234;-70
2023/08/25 04:31:11;;;;;;;2.07;1.77;;;;;24.40;99742.00;;;;2112644;28;20260;-70
2023/08/25 04:32:12;;;;;;;2.63;2.10;;;;;24.40;99738.00;;;;2110749;28;20207;-70
2023/08/25 04:33:12;;;;;;;2.87;1.60;;;;;24.40;99746.00;;;;2096927;28;20216;-70
2023/08/25 04:34:13;;;;;;;3.00;2.07;;;;;24.40;99732.00;;;;2086805;28;20278;-70
2023/08/25 04:35:13;;;;;;;3.27;1.70;;;;;24.40;99728.00;;;;2110564;28;20215;-70
2023/08/25 04:36:14;;;;;;;3.87;2.30;;;;;24.40;99733.00;;;;2114018;28;20239;-70
2023/08/25 04:37:14;;;;;;;2.97;1.90;;;;;24.40;99731.00;;;;2113530;28;20211;-70
2023/08/25 04:38:14;;;;;;;3.90;2.13;;;;;24.40;99735.00;;;;2114141;28;20291;-71
2023/08/25 04:39:15;;;;;;;2.03;1.60;;;;;24.40;99745.00;;;;2103994;28;20211;-71
2023/08/25 04:40:15;;;;;;;3.03;1.90;;;;;24.40;99742.00;;;;2113354;28;20241;-70
2023/08/25 04:41:15;;;;;;;2.63;2.20;;;;;24.40;99742.00;;;;2112492;28;20223;-71
2023/08/25 04:42:16;;;;;;;2.13;1.93;;;;;24.40;99745.00;;;;2113352;28;20234;-71
2023/08/25 04:43:16;;;;;;;3.43;2.17;;;;;24.40;99746.00;;;;2105196;28;20244;-71
2023/08/25 04:44:16;;;;;;;4.13;2.10;;;;;24.30;99749.00;;;;2094009;28;20231;-71
2023/08/25 04:45:17;;;;;;;1.77;1.53;;;;;24.40;99747.00;;;;2113684;28;20219;-71
2023/08/25 04:46:17;;;;;;;2.20;2.00;;;;;24.40;99746.00;;;;2113977;28;20222;-71
2023/08/25 04:47:17;;;;;;;2.47;2.27;;;;;24.40;99738.00;;;;2113607;28;20230;-71
2023/08/25 04:48:18;;;;;;;2.23;1.73;;;;;24.40;99736.00;;;;2114212;28;20211;-71
2023/08/25 04:49:18;;;;;;;2.43;1.77;;;;;24.40;99735.00;;;;2103223;28;20263;-71
2023/08/25 04:50:18;;;;;;;2.20;2.00;;;;;24.40;99736.00;;;;2112494;28;20238;-71
2023/08/25 04:51:19;;;;;;;3.97;2.03;;;;;24.40;99744.00;;;;2111809;28;20211;-71
2023/08/25 04:52:20;;;;;;;3.40;2.20;;;;;24.40;99737.00;;;;2114160;28;20211;-71
2023/08/25 04:53:21;;;;;;;2.40;1.75;;;;;24.40;99740.00;;;;2113888;28;20570;-71
2023/08/25 04:54:21;;;;;;;2.77;1.90;;;;;24.40;99740.00;;;;2102981;28;20299;-71
2023/08/25 04:55:21;;;;;;;4.20;2.03;;;;;24.40;99740.00;;;;2113766;28;20214;-71
2023/08/25 04:56:21;;;;;;;3.30;2.27;;;;;24.40;99736.00;;;;2104147;28;20249;-71
2023/08/25 04:57:22;;;;;;;4.10;1.80;;;;;24.40;99750.00;;;;2105016;28;20223;-71
2023/08/25 04:58:22;;;;;;;2.97;2.10;;;;;24.40;99740.00;;;;2110001;28;20226;-71
2023/08/25 04:59:24;;;;;;;2.37;2.00;;;;;24.40;99730.00;;;;2099250;28;20311;-71
2023/08/25 05:00:24;;;;;;;2.65;1.60;;;;;24.40;99726.00;;;;2110753;28;20211;-71
2023/08/25 05:01:24;;;;;;;2.17;1.90;;;;;24.40;99743.00;;;;2113208;28;20203;-71
2023/08/25 05:02:25;;;;;;;2.63;2.20;;;;;24.40;99735.00;;;;2114005;28;20284;-70
2023/08/25 05:03:25;;;;;;;3.93;2.10;;;;;24.40;99732.00;;;;2114050;28;20226;-70
2023/08/25 05:04:25;;;;;;;2.80;2.13;;;;;24.40;99734.00;;;;2103069;28;20275;-69
2023/08/25 05:05:26;;;;;;;3.40;2.30;;;;;24.40;99737.00;;;;2104614;28;20215;-69
2023/08/25 05:06:26;;;;;;;2.80;2.17;;;;;24.40;99732.00;;;;2105023;28;20210;-70